Terminal Aerodrome Forecast
Issued by NWS

Home | Current Version | Previous Version | Text Only | Print | Product List | Glossary On
Versions: 1 2 3 4 5 6 7 8 9 10 11 12
000
FTUS45 KBYZ 251121
TAFLVM
TAF
KLVM 251121Z 2512/2612 27022KT P6SM BKN070
     FM251500 23032G48KT P6SM BKN060
     FM252200 22038G53KT P6SM VCSH BKN050
     FM260500 22030G40KT P6SM VCSH BKN060=

USA.gov is the U.S. government's official web portal to all federal, state and local government web resources and services.